createdAt,value
2018-11-14T00:04:50.601Z,4.30
2018-11-14T00:07:21.629Z,4.40
2018-11-14T00:12:18.110Z,4.60
2018-11-14T00:14:46.249Z,4.60
2018-11-14T00:17:14.424Z,4.70
2018-11-14T00:22:11.495Z,4.70
2018-11-14T00:27:09.486Z,4.50
2018-11-14T00:29:37.671Z,4.30
2018-11-14T00:32:07.451Z,4.40
2018-11-14T00:34:35.661Z,4.30
2018-11-14T00:37:03.785Z,4.40
2018-11-14T00:39:31.938Z,5.50
2018-11-14T00:42:00.190Z,4.40
2018-11-14T00:44:28.363Z,4.30
2018-11-14T00:59:20.418Z,4.00
2018-11-14T01:01:48.566Z,4.10
2018-11-14T01:11:45.073Z,4.00
2018-11-14T01:16:42.270Z,4.00
2018-11-14T01:19:12.701Z,4.00
2018-11-14T01:21:40.898Z,3.90
2018-11-14T01:24:09.017Z,3.70
2018-11-14T01:26:37.208Z,3.70
2018-11-14T01:29:06.338Z,3.60
2018-11-14T01:31:35.702Z,3.60
2018-11-14T01:34:04.974Z,3.60
2018-11-14T01:36:34.602Z,3.60
2018-11-14T01:39:02.761Z,3.50
2018-11-14T01:41:30.890Z,3.60
2018-11-14T01:44:00.208Z,3.70
2018-11-14T01:48:58.277Z,3.90
2018-11-14T01:51:26.419Z,4.00
2018-11-14T01:53:54.550Z,4.00
2018-11-14T01:58:52.422Z,3.90
2018-11-14T02:01:22.549Z,4.00
2018-11-14T02:03:50.991Z,4.00
2018-11-14T02:06:19.612Z,4.00
2018-11-14T02:08:49.914Z,4.00
2018-11-14T02:11:18.320Z,3.90
2018-11-14T02:13:48.345Z,4.00
2018-11-14T02:16:16.478Z,4.00
2018-11-14T02:18:44.614Z,4.10
2018-11-14T02:21:13.174Z,4.00
2018-11-14T02:23:41.574Z,4.00
2018-11-14T02:26:09.714Z,3.90
2018-11-14T02:28:40.346Z,3.70
2018-11-14T02:31:09.774Z,3.80
2018-11-14T02:33:37.951Z,3.70
2018-11-14T02:38:34.022Z,3.60
2018-11-14T02:41:02.768Z,3.50
2018-11-14T02:43:31.022Z,3.40
2018-11-14T02:53:29.846Z,3.30
2018-11-14T02:58:34.828Z,3.40
2018-11-14T03:01:04.457Z,3.30
2018-11-14T03:06:00.501Z,3.40
2018-11-14T03:08:28.665Z,3.30
2018-11-14T03:15:55.402Z,3.40
2018-11-14T03:20:51.443Z,3.50
2018-11-14T03:23:20.058Z,3.50
2018-11-14T03:35:47.662Z,3.70
2018-11-14T03:43:13.675Z,3.70
2018-11-14T03:45:42.706Z,3.70
2018-11-14T03:50:41.308Z,3.60
2018-11-14T03:53:09.545Z,3.60
2018-11-14T03:55:37.704Z,3.50
2018-11-14T03:58:06.413Z,3.50
2018-11-14T04:00:34.531Z,3.50
2018-11-14T04:03:04.223Z,3.50
2018-11-14T04:08:00.323Z,3.40
2018-11-14T04:10:29.467Z,3.40
2018-11-14T04:12:59.294Z,3.40
2018-11-14T04:17:56.306Z,3.30
2018-11-14T04:20:24.447Z,3.30
2018-11-14T04:22:54.183Z,3.30
2018-11-14T04:25:22.456Z,3.20
2018-11-14T04:27:50.755Z,3.10
2018-11-14T04:30:21.197Z,3.10
2018-11-14T04:40:18.395Z,3.30
2018-11-14T04:42:46.999Z,3.40
2018-11-14T04:50:17.346Z,3.20
2018-11-14T04:55:17.097Z,3.20
2018-11-14T04:57:46.149Z,3.20
2018-11-14T05:00:17.039Z,3.20
2018-11-14T05:07:42.958Z,3.20
2018-11-14T05:12:41.097Z,3.20
2018-11-14T05:17:38.395Z,3.30
2018-11-14T05:25:04.994Z,3.30
2018-11-14T05:30:01.261Z,3.30
2018-11-14T05:32:30.278Z,3.20
2018-11-14T05:34:59.158Z,3.00
2018-11-14T05:37:28.330Z,2.90
2018-11-14T05:42:25.598Z,2.80
2018-11-14T05:52:18.362Z,3.00
2018-11-14T05:54:47.244Z,3.10
2018-11-14T05:57:15.438Z,3.10
2018-11-14T05:59:43.574Z,3.00
2018-11-14T06:02:11.713Z,3.10
2018-11-14T06:04:40.801Z,3.10
2018-11-14T06:12:06.130Z,3.10
2018-11-14T06:14:35.135Z,3.10
2018-11-14T06:22:02.074Z,3.20
2018-11-14T06:29:26.199Z,3.10
2018-11-14T06:31:54.335Z,3.10
2018-11-14T06:34:23.043Z,3.10
2018-11-14T06:36:51.354Z,3.20
2018-11-14T06:39:20.699Z,3.10
2018-11-14T06:41:50.297Z,3.10
2018-11-14T06:49:15.111Z,2.90
2018-11-14T06:54:13.060Z,2.90
2018-11-14T06:56:41.230Z,2.80
2018-11-14T06:59:09.929Z,2.80
2018-11-14T07:01:39.446Z,2.70
2018-11-14T07:04:07.799Z,2.70
2018-11-14T07:06:35.939Z,2.80
2018-11-14T07:09:06.270Z,2.90
2018-11-14T07:11:35.677Z,3.00
2018-11-14T07:19:00.651Z,3.10
2018-11-14T07:21:29.659Z,3.10
2018-11-14T07:26:26.946Z,3.00
2018-11-14T07:33:51.634Z,3.10
2018-11-14T07:36:19.784Z,3.00
2018-11-14T07:38:49.658Z,3.10
2018-11-14T07:41:25.041Z,3.00
2018-11-14T07:43:54.362Z,3.00
2018-11-14T07:46:23.049Z,3.10
2018-11-14T07:48:51.707Z,3.10
2018-11-14T07:56:16.425Z,3.30
2018-11-14T07:58:45.889Z,3.30
2018-11-14T08:01:14.261Z,3.10
2018-11-14T08:03:42.479Z,3.10
2018-11-14T08:08:38.601Z,2.90
2018-11-14T08:18:32.606Z,3.20
2018-11-14T08:30:54.258Z,3.50
2018-11-14T08:33:23.070Z,3.70
2018-11-14T08:35:52.182Z,3.70
2018-11-14T08:38:20.333Z,3.60
2018-11-14T08:40:48.460Z,3.60
2018-11-14T08:48:14.530Z,3.80
2018-11-14T08:53:11.419Z,4.10
2018-11-14T08:55:39.535Z,4.20
2018-11-14T08:58:11.229Z,4.30
2018-11-14T09:00:39.441Z,4.20
2018-11-14T09:03:09.852Z,4.40
2018-11-14T09:10:34.630Z,4.50
2018-11-14T09:13:03.426Z,4.60
2018-11-14T09:20:28.700Z,4.50
2018-11-14T09:25:27.371Z,4.60
2018-11-14T09:27:55.742Z,4.60
2018-11-14T09:30:25.330Z,4.60
2018-11-14T09:32:54.874Z,4.70
2018-11-14T09:35:23.802Z,4.90
2018-11-14T09:40:22.591Z,5.20
2018-11-14T09:42:50.730Z,5.30
2018-11-14T09:47:48.623Z,5.40
2018-11-14T09:50:22.655Z,5.50
2018-11-14T09:52:53.506Z,5.50
2018-11-14T09:57:49.672Z,5.80
2018-11-14T10:00:21.766Z,5.80
2018-11-14T10:02:56.525Z,5.70
2018-11-14T10:05:25.152Z,5.70
2018-11-14T10:10:23.240Z,5.80
2018-11-14T10:12:51.523Z,5.70
2018-11-14T10:17:50.374Z,5.70
2018-11-14T10:20:20.237Z,5.60
2018-11-14T10:22:48.539Z,5.70
2018-11-14T10:25:17.110Z,5.80
2018-11-14T10:27:45.867Z,5.90
2018-11-14T10:30:17.108Z,5.80
2018-11-14T10:32:52.749Z,5.90
2018-11-14T10:35:21.866Z,6.00
2018-11-14T10:37:50.046Z,6.10
2018-11-14T10:40:22.467Z,6.10
2018-11-14T10:42:51.465Z,6.30
2018-11-14T10:45:21.518Z,6.30
2018-11-14T10:52:47.092Z,6.30
2018-11-14T10:55:15.955Z,6.40
2018-11-14T10:57:44.287Z,6.60
2018-11-14T11:00:20.971Z,6.60
2018-11-14T11:02:55.160Z,6.60
2018-11-14T11:05:32.661Z,6.70
2018-11-14T11:08:06.787Z,6.80
2018-11-14T11:10:40.406Z,6.80
2018-11-14T11:13:10.507Z,6.90
2018-11-14T11:15:44.906Z,7.00
2018-11-14T11:18:14.878Z,7.20
2018-11-14T11:20:44.119Z,7.30
2018-11-14T11:25:41.444Z,7.60
2018-11-14T11:33:07.400Z,7.80
2018-11-14T11:35:35.607Z,7.90
2018-11-14T11:38:04.107Z,8.00
2018-11-14T11:40:33.670Z,8.00
2018-11-14T11:43:02.466Z,8.10
2018-11-14T11:45:32.103Z,8.10
2018-11-14T11:50:29.528Z,8.30
2018-11-14T11:55:26.315Z,8.50
2018-11-14T11:57:54.845Z,8.60
2018-11-14T12:00:23.151Z,8.70
2018-11-14T12:02:51.192Z,8.70
2018-11-14T12:05:19.449Z,8.80
2018-11-14T12:07:48.868Z,8.90
2018-11-14T12:10:17.174Z,8.90
2018-11-14T12:12:46.375Z,9.00
2018-11-14T12:15:15.528Z,9.10
2018-11-14T12:22:41.831Z,9.30
2018-11-14T12:27:39.639Z,9.40
2018-11-14T12:30:11.441Z,9.50
2018-11-14T12:32:40.470Z,9.50
2018-11-14T12:35:09.927Z,9.60
2018-11-14T12:40:08.075Z,9.70
2018-11-14T12:45:05.220Z,9.70
2018-11-14T12:52:29.547Z,9.70
2018-11-14T12:59:54.201Z,9.90
2018-11-14T13:02:22.379Z,9.90
2018-11-14T13:04:51.993Z,9.90
2018-11-14T13:07:20.460Z,10.00
2018-11-14T13:09:50.468Z,10.00
2018-11-14T13:12:18.750Z,10.00
2018-11-14T13:14:46.891Z,9.90
2018-11-14T13:17:16.001Z,10.00
2018-11-14T13:19:45.696Z,10.00
2018-11-14T13:24:42.706Z,10.10
2018-11-14T13:27:12.084Z,10.10
2018-11-14T13:29:40.343Z,10.10
2018-11-14T13:32:09.158Z,10.20
2018-11-14T13:34:37.364Z,10.10
2018-11-14T13:37:06.690Z,10.10
2018-11-14T13:39:36.238Z,10.10
2018-11-14T13:42:06.544Z,10.10
2018-11-14T13:44:34.785Z,10.00
2018-11-14T13:47:02.931Z,10.00
2018-11-14T13:52:00.828Z,10.10
2018-11-14T13:54:30.066Z,10.20
2018-11-14T13:56:59.545Z,10.10
2018-11-14T14:01:55.967Z,10.10
2018-11-14T14:04:24.118Z,10.10
2018-11-14T14:09:20.446Z,10.10
2018-11-14T14:11:50.057Z,10.10
2018-11-14T14:14:19.166Z,10.00
2018-11-14T14:24:11.929Z,10.50
2018-11-14T14:34:07.180Z,10.70
2018-11-14T14:36:35.330Z,10.70
2018-11-14T14:39:04.931Z,10.80
2018-11-14T14:41:33.262Z,10.80
2018-11-14T14:44:03.712Z,10.80
2018-11-14T14:46:31.952Z,10.80
2018-11-14T14:49:00.835Z,10.80
2018-11-14T14:51:28.899Z,10.80
2018-11-14T14:53:58.382Z,10.70
2018-11-14T14:56:27.646Z,10.70
2018-11-14T15:01:23.627Z,11.30
2018-11-14T15:03:51.763Z,10.40
2018-11-14T15:08:48.875Z,10.30
2018-11-14T15:11:17.022Z,10.20
2018-11-14T15:13:46.538Z,10.20
2018-11-14T15:16:14.677Z,10.10
2018-11-14T15:18:42.807Z,10.10
2018-11-14T15:21:11.108Z,10.00
2018-11-14T15:26:07.322Z,9.80
2018-11-14T15:28:35.486Z,9.80
2018-11-14T15:31:05.594Z,9.60
2018-11-14T15:33:35.445Z,9.50
2018-11-14T15:36:03.638Z,9.40
2018-11-14T15:38:31.718Z,9.30
2018-11-14T15:40:59.859Z,9.20
2018-11-14T15:43:27.986Z,9.10
2018-11-14T15:45:56.151Z,9.00
2018-11-14T15:48:26.038Z,9.00
2018-11-14T15:50:55.679Z,8.90
2018-11-14T16:00:53.283Z,8.50
2018-11-14T16:05:50.602Z,8.20
2018-11-14T16:08:21.495Z,8.20
2018-11-14T16:10:50.078Z,8.00
2018-11-14T16:13:18.219Z,7.90
2018-11-14T16:15:46.346Z,7.80
2018-11-14T16:18:14.519Z,7.70
2018-11-14T16:20:42.618Z,7.50
2018-11-14T16:30:37.920Z,7.30
2018-11-14T16:33:07.318Z,7.30
2018-11-14T16:35:37.175Z,7.20
2018-11-14T16:38:05.684Z,7.00
2018-11-14T16:43:04.413Z,6.70
2018-11-14T16:45:35.221Z,6.60
2018-11-14T16:50:32.573Z,6.30
2018-11-14T16:53:00.708Z,6.20
2018-11-14T16:55:30.867Z,6.10
2018-11-14T16:58:00.473Z,6.00
2018-11-14T17:00:30.845Z,5.90
2018-11-14T17:02:59.222Z,5.60
2018-11-14T17:05:29.938Z,5.50
2018-11-14T17:07:58.078Z,5.40
2018-11-14T17:10:27.907Z,5.30
2018-11-14T17:15:27.255Z,5.20
2018-11-14T17:25:22.023Z,5.20
2018-11-14T17:30:21.626Z,5.10
2018-11-14T17:32:50.016Z,5.20
2018-11-14T17:35:18.625Z,5.20
2018-11-14T17:37:47.071Z,5.10
2018-11-14T17:40:20.363Z,4.90
2018-11-14T17:42:49.907Z,4.80
2018-11-14T17:45:21.516Z,4.60
2018-11-14T17:47:50.203Z,4.50
2018-11-14T17:50:20.275Z,4.60
2018-11-14T17:52:49.330Z,4.50
2018-11-14T17:55:18.609Z,4.40
2018-11-14T17:57:47.872Z,4.20
2018-11-14T18:05:17.135Z,4.20
2018-11-14T18:07:46.278Z,4.20
2018-11-14T18:10:15.762Z,4.30
2018-11-14T18:20:14.798Z,4.20
2018-11-14T18:22:44.834Z,4.20
2018-11-14T18:27:41.377Z,4.20
2018-11-14T18:30:15.180Z,4.10
2018-11-14T18:32:43.516Z,4.10
2018-11-14T18:35:14.939Z,4.10
2018-11-14T18:37:43.823Z,4.00
2018-11-14T18:40:13.918Z,4.00
2018-11-14T18:42:43.095Z,4.10
2018-11-14T18:55:07.849Z,4.10
2018-11-14T18:57:38.072Z,4.10
2018-11-14T19:00:09.530Z,4.10
2018-11-14T19:02:38.662Z,4.10
2018-11-14T19:05:08.620Z,4.00
2018-11-14T19:07:37.094Z,4.00
2018-11-14T19:12:33.924Z,4.00
2018-11-14T19:15:02.051Z,4.00
2018-11-14T19:17:30.246Z,4.00
2018-11-14T19:19:59.067Z,4.10
2018-11-14T19:24:56.122Z,4.10
2018-11-14T19:27:24.270Z,4.20
2018-11-14T19:29:52.418Z,4.10
2018-11-14T19:32:20.559Z,4.00
2018-11-14T19:34:48.983Z,4.00
2018-11-14T19:37:17.298Z,4.00
2018-11-14T19:54:34.242Z,4.20
2018-11-14T19:59:30.406Z,4.00
2018-11-14T20:01:58.673Z,4.00
2018-11-14T20:09:23.608Z,3.90
2018-11-14T20:11:51.843Z,4.10
2018-11-14T20:16:48.479Z,4.30
2018-11-14T20:19:16.630Z,4.30
2018-11-14T20:21:45.095Z,4.30
2018-11-14T20:26:41.270Z,4.30
2018-11-14T20:31:37.782Z,4.40
2018-11-14T20:34:07.550Z,4.40
2018-11-14T20:36:36.186Z,4.30
2018-11-14T20:44:03.805Z,4.20
2018-11-14T20:46:34.640Z,4.10
2018-11-14T20:49:04.812Z,4.10
2018-11-14T20:51:32.955Z,4.00
2018-11-14T20:54:03.357Z,4.00
2018-11-14T21:11:18.909Z,4.50
2018-11-14T21:13:48.470Z,4.70
2018-11-14T21:16:16.647Z,4.80
2018-11-14T21:18:46.767Z,4.90
2018-11-14T21:21:15.031Z,5.00
2018-11-14T21:28:41.366Z,5.00
2018-11-14T21:36:06.922Z,5.00
2018-11-14T21:38:35.436Z,5.00
2018-11-14T21:41:03.650Z,5.00
2018-11-14T21:43:33.152Z,5.10
2018-11-14T21:50:57.236Z,5.10
2018-11-14T21:53:25.526Z,5.10
2018-11-14T21:58:23.753Z,5.20
2018-11-14T22:08:16.386Z,5.40
2018-11-14T22:10:44.534Z,5.40
2018-11-14T22:13:12.785Z,5.30
2018-11-14T22:18:10.474Z,5.20
2018-11-14T22:20:38.766Z,5.20
2018-11-14T22:23:06.914Z,5.30
2018-11-14T22:25:36.320Z,5.30
2018-11-14T22:28:05.418Z,5.30
2018-11-14T22:33:02.410Z,5.30
2018-11-14T22:35:32.319Z,5.30
2018-11-14T22:38:00.467Z,5.40
2018-11-14T22:40:29.826Z,5.40
2018-11-14T22:42:57.979Z,5.40
2018-11-14T22:55:23.069Z,5.50
2018-11-14T22:57:52.626Z,5.40
2018-11-14T23:00:29.448Z,5.30
2018-11-14T23:03:00.219Z,5.30
2018-11-14T23:05:28.457Z,5.20
2018-11-14T23:07:57.439Z,5.20
2018-11-14T23:10:26.223Z,5.10
2018-11-14T23:15:23.721Z,5.10
2018-11-14T23:17:52.585Z,5.10
2018-11-14T23:20:20.814Z,5.10
2018-11-14T23:22:50.137Z,5.10
2018-11-14T23:25:19.573Z,5.10
2018-11-14T23:30:17.801Z,5.00
2018-11-14T23:32:47.754Z,5.00
2018-11-14T23:37:48.911Z,5.00
2018-11-14T23:40:17.309Z,5.00
2018-11-14T23:42:45.447Z,4.90
2018-11-14T23:45:15.101Z,4.90
2018-11-14T23:50:15.329Z,4.80
2018-11-14T23:52:45.178Z,4.80
2018-11-14T23:55:13.823Z,4.80
